sensor_id;sensor_type;location;lat;lon;timestamp;P1;durP1;ratioP1;P2;durP2;ratioP2
57718;SDS011;43561;50.090;18.522;2023-06-14T00:03:11;10.50;;;7.07;;
57718;SDS011;43561;50.090;18.522;2023-06-14T00:13:16;13.50;;;7.68;;
57718;SDS011;43561;50.090;18.522;2023-06-14T00:23:26;17.38;;;7.57;;
57718;SDS011;43561;50.090;18.522;2023-06-14T00:33:28;12.93;;;9.18;;
57718;SDS011;43561;50.090;18.522;2023-06-14T00:43:30;10.90;;;6.90;;
57718;SDS011;43561;50.090;18.522;2023-06-14T00:53:41;13.90;;;7.53;;
57718;SDS011;43561;50.090;18.522;2023-06-14T01:03:45;10.10;;;6.28;;
57718;SDS011;43561;50.090;18.522;2023-06-14T01:13:47;17.50;;;7.65;;
57718;SDS011;43561;50.090;18.522;2023-06-14T01:23:52;12.23;;;7.88;;
57718;SDS011;43561;50.090;18.522;2023-06-14T01:33:55;13.98;;;6.47;;
57718;SDS011;43561;50.090;18.522;2023-06-14T01:43:57;19.60;;;9.70;;
57718;SDS011;43561;50.090;18.522;2023-06-14T01:54:00;13.93;;;7.85;;
57718;SDS011;43561;50.090;18.522;2023-06-14T02:04:03;22.30;;;9.18;;
57718;SDS011;43561;50.090;18.522;2023-06-14T02:25:07;17.83;;;9.23;;
57718;SDS011;43561;50.090;18.522;2023-06-14T02:35:10;20.25;;;8.73;;
57718;SDS011;43561;50.090;18.522;2023-06-14T02:45:20;19.63;;;8.80;;
57718;SDS011;43561;50.090;18.522;2023-06-14T02:55:23;20.15;;;8.98;;
57718;SDS011;43561;50.090;18.522;2023-06-14T03:05:25;23.55;;;10.18;;
57718;SDS011;43561;50.090;18.522;2023-06-14T03:26:43;22.50;;;10.80;;
57718;SDS011;43561;50.090;18.522;2023-06-14T03:36:45;17.88;;;9.02;;
57718;SDS011;43561;50.090;18.522;2023-06-14T03:46:48;41.15;;;19.17;;
57718;SDS011;43561;50.090;18.522;2023-06-14T03:56:50;24.67;;;14.13;;
57718;SDS011;43561;50.090;18.522;2023-06-14T04:06:52;21.85;;;11.80;;
57718;SDS011;43561;50.090;18.522;2023-06-14T04:16:55;23.02;;;10.57;;
57718;SDS011;43561;50.090;18.522;2023-06-14T04:26:58;57.13;;;21.90;;
57718;SDS011;43561;50.090;18.522;2023-06-14T04:37:01;33.13;;;15.80;;
57718;SDS011;43561;50.090;18.522;2023-06-14T04:47:06;22.67;;;12.25;;
57718;SDS011;43561;50.090;18.522;2023-06-14T04:57:09;28.80;;;13.48;;
57718;SDS011;43561;50.090;18.522;2023-06-14T05:07:15;19.05;;;10.95;;
57718;SDS011;43561;50.090;18.522;2023-06-14T05:17:23;19.77;;;12.05;;
57718;SDS011;43561;50.090;18.522;2023-06-14T05:27:25;23.85;;;12.20;;
57718;SDS011;43561;50.090;18.522;2023-06-14T05:37:29;28.90;;;16.02;;
57718;SDS011;43561;50.090;18.522;2023-06-14T05:47:31;26.23;;;13.50;;
57718;SDS011;43561;50.090;18.522;2023-06-14T05:57:33;35.10;;;16.00;;
57718;SDS011;43561;50.090;18.522;2023-06-14T06:07:35;31.08;;;15.98;;
57718;SDS011;43561;50.090;18.522;2023-06-14T06:17:38;19.85;;;11.30;;
57718;SDS011;43561;50.090;18.522;2023-06-14T06:27:56;21.00;;;12.88;;
57718;SDS011;43561;50.090;18.522;2023-06-14T06:37:59;19.95;;;9.30;;
57718;SDS011;43561;50.090;18.522;2023-06-14T06:48:01;32.67;;;16.42;;
57718;SDS011;43561;50.090;18.522;2023-06-14T06:58:03;40.55;;;18.40;;
57718;SDS011;43561;50.090;18.522;2023-06-14T07:08:05;44.90;;;18.10;;
57718;SDS011;43561;50.090;18.522;2023-06-14T07:18:07;27.55;;;13.38;;
57718;SDS011;43561;50.090;18.522;2023-06-14T07:28:09;40.63;;;12.68;;
57718;SDS011;43561;50.090;18.522;2023-06-14T07:38:12;28.33;;;15.82;;
57718;SDS011;43561;50.090;18.522;2023-06-14T07:48:14;27.65;;;15.25;;
57718;SDS011;43561;50.090;18.522;2023-06-14T07:58:16;34.10;;;14.50;;
57718;SDS011;43561;50.090;18.522;2023-06-14T08:08:18;25.88;;;13.35;;
57718;SDS011;43561;50.090;18.522;2023-06-14T08:18:20;27.92;;;14.88;;
57718;SDS011;43561;50.090;18.522;2023-06-14T08:28:32;20.07;;;10.03;;
57718;SDS011;43561;50.090;18.522;2023-06-14T08:38:34;24.60;;;11.30;;
57718;SDS011;43561;50.090;18.522;2023-06-14T08:48:36;30.80;;;12.93;;
57718;SDS011;43561;50.090;18.522;2023-06-14T08:58:47;17.23;;;11.63;;
57718;SDS011;43561;50.090;18.522;2023-06-14T09:08:50;22.65;;;11.75;;
57718;SDS011;43561;50.090;18.522;2023-06-14T09:18:53;21.17;;;9.68;;
57718;SDS011;43561;50.090;18.522;2023-06-14T09:28:55;22.38;;;10.88;;
57718;SDS011;43561;50.090;18.522;2023-06-14T09:39:03;21.05;;;10.43;;
57718;SDS011;43561;50.090;18.522;2023-06-14T09:49:05;31.27;;;13.63;;
57718;SDS011;43561;50.090;18.522;2023-06-14T09:59:09;18.33;;;11.50;;
57718;SDS011;43561;50.090;18.522;2023-06-14T10:09:12;23.70;;;11.43;;
57718;SDS011;43561;50.090;18.522;2023-06-14T10:29:26;17.70;;;10.93;;
57718;SDS011;43561;50.090;18.522;2023-06-14T10:39:29;10.95;;;8.13;;
57718;SDS011;43561;50.090;18.522;2023-06-14T10:49:41;11.45;;;9.15;;
57718;SDS011;43561;50.090;18.522;2023-06-14T10:59:47;12.70;;;8.73;;
57718;SDS011;43561;50.090;18.522;2023-06-14T11:20:30;12.07;;;6.60;;
57718;SDS011;43561;50.090;18.522;2023-06-14T11:30:35;6.75;;;5.22;;
57718;SDS011;43561;50.090;18.522;2023-06-14T11:51:13;8.25;;;5.95;;
57718;SDS011;43561;50.090;18.522;2023-06-14T12:01:17;11.55;;;6.32;;
57718;SDS011;43561;50.090;18.522;2023-06-14T12:11:21;9.00;;;5.93;;
57718;SDS011;43561;50.090;18.522;2023-06-14T12:21:23;7.32;;;5.97;;
57718;SDS011;43561;50.090;18.522;2023-06-14T12:31:25;9.55;;;8.15;;
57718;SDS011;43561;50.090;18.522;2023-06-14T12:41:27;8.18;;;6.15;;
57718;SDS011;43561;50.090;18.522;2023-06-14T12:51:29;7.95;;;6.40;;
57718;SDS011;43561;50.090;18.522;2023-06-14T13:01:31;12.38;;;6.93;;
57718;SDS011;43561;50.090;18.522;2023-06-14T13:11:34;12.60;;;7.63;;
57718;SDS011;43561;50.090;18.522;2023-06-14T13:21:37;7.72;;;6.95;;
57718;SDS011;43561;50.090;18.522;2023-06-14T13:42:13;8.70;;;7.55;;
57718;SDS011;43561;50.090;18.522;2023-06-14T13:52:15;9.70;;;7.53;;
57718;SDS011;43561;50.090;18.522;2023-06-14T14:02:30;8.45;;;7.22;;
57718;SDS011;43561;50.090;18.522;2023-06-14T14:12:32;9.90;;;5.60;;
57718;SDS011;43561;50.090;18.522;2023-06-14T14:22:41;10.27;;;8.90;;
57718;SDS011;43561;50.090;18.522;2023-06-14T14:32:47;15.65;;;8.50;;
57718;SDS011;43561;50.090;18.522;2023-06-14T14:42:55;8.90;;;7.38;;
57718;SDS011;43561;50.090;18.522;2023-06-14T14:52:57;7.97;;;6.60;;
57718;SDS011;43561;50.090;18.522;2023-06-14T15:03:05;8.48;;;6.45;;
57718;SDS011;43561;50.090;18.522;2023-06-14T15:13:07;5.85;;;4.72;;
57718;SDS011;43561;50.090;18.522;2023-06-14T15:23:09;5.93;;;5.32;;
57718;SDS011;43561;50.090;18.522;2023-06-14T15:33:14;4.47;;;3.65;;
57718;SDS011;43561;50.090;18.522;2023-06-14T15:43:16;6.68;;;4.45;;
57718;SDS011;43561;50.090;18.522;2023-06-14T15:53:19;6.10;;;4.22;;
57718;SDS011;43561;50.090;18.522;2023-06-14T16:03:21;8.10;;;5.10;;
57718;SDS011;43561;50.090;18.522;2023-06-14T16:13:35;6.43;;;4.13;;
57718;SDS011;43561;50.090;18.522;2023-06-14T16:24:00;6.78;;;5.05;;
57718;SDS011;43561;50.090;18.522;2023-06-14T16:34:08;7.13;;;4.53;;
57718;SDS011;43561;50.090;18.522;2023-06-14T16:44:18;11.38;;;5.65;;
57718;SDS011;43561;50.090;18.522;2023-06-14T16:54:34;7.47;;;4.65;;
57718;SDS011;43561;50.090;18.522;2023-06-14T17:27:35;10.63;;;3.65;;
57718;SDS011;43561;50.090;18.522;2023-06-14T17:59:21;8.52;;;4.07;;
57718;SDS011;43561;50.090;18.522;2023-06-14T19:06:15;12.60;;;6.53;;
57718;SDS011;43561;50.090;18.522;2023-06-14T19:16:17;9.43;;;6.53;;
57718;SDS011;43561;50.090;18.522;2023-06-14T19:26:21;9.13;;;6.70;;
57718;SDS011;43561;50.090;18.522;2023-06-14T19:36:23;9.98;;;7.03;;
57718;SDS011;43561;50.090;18.522;2023-06-14T19:46:25;11.48;;;7.40;;
57718;SDS011;43561;50.090;18.522;2023-06-14T19:56:28;17.48;;;11.02;;
57718;SDS011;43561;50.090;18.522;2023-06-14T20:06:29;44.47;;;21.35;;
57718;SDS011;43561;50.090;18.522;2023-06-14T20:16:32;16.63;;;11.25;;
57718;SDS011;43561;50.090;18.522;2023-06-14T20:26:35;12.63;;;7.95;;
57718;SDS011;43561;50.090;18.522;2023-06-14T20:36:37;16.95;;;8.85;;
57718;SDS011;43561;50.090;18.522;2023-06-14T20:46:39;15.80;;;8.80;;
57718;SDS011;43561;50.090;18.522;2023-06-14T20:56:41;11.75;;;8.73;;
57718;SDS011;43561;50.090;18.522;2023-06-14T21:06:43;12.77;;;8.65;;
57718;SDS011;43561;50.090;18.522;2023-06-14T21:16:45;14.75;;;9.07;;
57718;SDS011;43561;50.090;18.522;2023-06-14T21:26:50;14.27;;;8.35;;
57718;SDS011;43561;50.090;18.522;2023-06-14T21:36:55;16.88;;;10.35;;
57718;SDS011;43561;50.090;18.522;2023-06-14T21:46:58;11.45;;;8.77;;
57718;SDS011;43561;50.090;18.522;2023-06-14T21:57:02;14.43;;;9.93;;
57718;SDS011;43561;50.090;18.522;2023-06-14T22:07:04;21.33;;;10.15;;
57718;SDS011;43561;50.090;18.522;2023-06-14T22:17:08;17.92;;;10.65;;
57718;SDS011;43561;50.090;18.522;2023-06-14T22:27:10;16.45;;;9.77;;
57718;SDS011;43561;50.090;18.522;2023-06-14T22:37:22;22.35;;;11.85;;
57718;SDS011;43561;50.090;18.522;2023-06-14T22:47:24;12.98;;;7.97;;
57718;SDS011;43561;50.090;18.522;2023-06-14T22:57:26;11.52;;;8.70;;
57718;SDS011;43561;50.090;18.522;2023-06-14T23:07:29;15.95;;;11.48;;
57718;SDS011;43561;50.090;18.522;2023-06-14T23:17:31;18.50;;;9.73;;
57718;SDS011;43561;50.090;18.522;2023-06-14T23:27:33;17.58;;;12.00;;
57718;SDS011;43561;50.090;18.522;2023-06-14T23:37:36;15.25;;;8.88;;
57718;SDS011;43561;50.090;18.522;2023-06-14T23:47:38;18.50;;;11.52;;
57718;SDS011;43561;50.090;18.522;2023-06-14T23:57:40;19.45;;;12.65;;
